Time;durP1;ratioP1;P1;durP2;ratioP2;P2;SDS_P1;SDS_P2;PMS_P1;PMS_P2;Temp;Humidity;BMP_temperature;BMP_pressure;BME280_temperature;BME280_humidity;BME280_pressure;Samples;Min_cycle;Max_cycle;Signal;HPM_P1;HPM_P2
2023/03/24 00:00:27;;;;;;;5.00;3.28;;;;;;;14.94;43.63;99326.44;4417901;32;35106;-64
2023/03/24 00:03:00;;;;;;;9.20;4.95;;;;;;;14.84;43.89;99329.19;4419412;32;33647;-62
2023/03/24 00:05:29;;;;;;;6.05;3.78;;;;;;;14.81;44.03;99329.50;4420525;32;33417;-62
2023/03/24 00:07:58;;;;;;;7.28;4.95;;;;;;;14.98;43.43;99319.72;4417725;32;33653;-62
2023/03/24 00:10:33;;;;;;;9.32;5.90;;;;;;;15.05;43.13;99331.56;4415065;32;32617;-61
2023/03/24 00:13:02;;;;;;;9.52;5.65;;;;;;;15.09;42.96;99323.03;4418202;32;34547;-61
2023/03/24 00:15:30;;;;;;;7.15;5.43;;;;;;;15.10;42.79;99319.34;4416620;32;33766;-61
2023/03/24 00:17:57;;;;;;;9.23;4.97;;;;;;;15.06;43.00;99322.50;4419899;32;33713;-63
2023/03/24 00:20:27;;;;;;;7.68;5.55;;;;;;;14.93;43.41;99317.50;4420833;32;34103;-63
2023/03/24 00:22:57;;;;;;;6.60;3.83;;;;;;;14.94;43.28;99323.72;4422020;32;34750;-63
2023/03/24 00:25:28;;;;;;;4.45;3.22;;;;;;;14.89;43.29;99318.78;4422048;32;33373;-62
2023/03/24 00:27:56;;;;;;;4.90;3.30;;;;;;;14.63;43.92;99315.97;4416688;32;32746;-62
2023/03/24 00:30:24;;;;;;;7.07;5.40;;;;;;;14.82;43.33;99310.47;4417829;32;32785;-61
2023/03/24 00:32:52;;;;;;;5.20;3.47;;;;;;;14.36;44.28;99314.13;4412526;32;33664;-62
2023/03/24 00:35:20;;;;;;;10.23;4.93;;;;;;;14.63;43.62;99308.75;4419088;32;34310;-61
2023/03/24 00:37:50;;;;;;;5.90;4.00;;;;;;;14.61;43.72;99301.84;4423901;32;33914;-61
2023/03/24 00:40:20;;;;;;;5.10;3.62;;;;;;;14.49;44.05;99306.53;4417467;32;33018;-61
2023/03/24 00:42:49;;;;;;;6.50;3.70;;;;;;;14.67;44.05;99302.06;4419394;32;32555;-62
2023/03/24 00:45:21;;;;;;;3.87;2.90;;;;;;;14.63;44.25;99297.97;4420610;32;32956;-62
2023/03/24 00:47:52;;;;;;;8.75;5.35;;;;;;;14.64;44.35;99288.91;4415415;32;33617;-61
2023/03/24 00:50:25;;;;;;;7.32;4.80;;;;;;;14.60;44.54;99283.97;4416945;32;35502;-62
2023/03/24 00:52:54;;;;;;;7.97;4.80;;;;;;;14.25;45.60;99284.69;4416659;32;34652;-62
2023/03/24 00:55:22;;;;;;;8.45;5.00;;;;;;;14.31;45.37;99276.03;4407541;32;34576;-63
2023/03/24 00:57:50;;;;;;;6.50;4.95;;;;;;;14.26;45.57;99275.66;4419205;32;34816;-61
2023/03/24 01:00:22;;;;;;;11.68;5.75;;;;;;;14.35;45.16;99261.25;4419776;32;33712;-63
2023/03/24 01:02:54;;;;;;;6.97;4.87;;;;;;;14.53;44.58;99259.47;4419070;32;33235;-61
2023/03/24 01:05:27;;;;;;;10.60;5.57;;;;;;;14.52;44.49;99263.19;4417779;32;32958;-62
2023/03/24 01:07:56;;;;;;;7.25;3.97;;;;;;;14.57;44.36;99263.56;4417451;32;33854;-62
2023/03/24 01:10:25;;;;;;;6.80;4.20;;;;;;;14.61;44.22;99259.59;4411644;32;33899;-61
2023/03/24 01:12:58;;;;;;;9.98;5.35;;;;;;;14.56;44.41;99261.03;4415043;32;35029;-60
2023/03/24 01:15:30;;;;;;;6.05;4.85;;;;;;;14.41;44.77;99257.97;4420291;32;32999;-59
2023/03/24 01:18:00;;;;;;;7.03;4.47;;;;;;;14.47;45.16;99249.28;4418898;32;33828;-60
2023/03/24 01:20:31;;;;;;;8.68;5.43;;;;;;;14.55;44.62;99237.81;4421003;32;32367;-60
2023/03/24 01:23:01;;;;;;;8.18;4.22;;;;;;;14.72;44.16;99247.72;4410721;32;34533;-62
2023/03/24 01:25:29;;;;;;;7.22;5.22;;;;;;;14.68;44.11;99235.56;4413677;32;33464;-60
2023/03/24 01:27:57;;;;;;;8.13;4.45;;;;;;;14.55;44.52;99230.56;4417463;32;33405;-59
2023/03/24 01:30:26;;;;;;;10.45;5.40;;;;;;;14.57;44.46;99230.41;4419893;32;33553;-60
2023/03/24 01:32:54;;;;;;;5.47;3.65;;;;;;;14.55;44.36;99233.25;4418004;32;34620;-60
2023/03/24 01:35:24;;;;;;;7.87;4.97;;;;;;;14.66;43.82;99218.72;4422048;32;33471;-59
2023/03/24 01:37:57;;;;;;;5.85;4.32;;;;;;;14.62;43.83;99225.41;4418647;32;34183;-60
2023/03/24 01:40:31;;;;;;;8.73;5.40;;;;;;;14.30;44.53;99225.88;4419860;32;35321;-59
2023/03/24 01:42:59;;;;;;;6.03;4.55;;;;;;;14.55;44.14;99219.78;4417662;32;34026;-60
2023/03/24 01:45:39;;;;;;;9.93;5.40;;;;;;;14.49;44.34;99225.75;4419705;32;34845;-61
2023/03/24 01:48:16;;;;;;;8.07;5.62;;;;;;;14.58;44.09;99224.88;4412244;32;34923;-60
2023/03/24 01:50:46;;;;;;;8.32;5.70;;;;;;;14.57;44.05;99225.84;4413649;32;32892;-60
2023/03/24 01:53:14;;;;;;;10.10;6.37;;;;;;;14.58;43.97;99216.81;4415214;32;33944;-60
2023/03/24 01:55:42;;;;;;;6.07;4.50;;;;;;;14.60;43.93;99230.94;4419358;32;32949;-60
2023/03/24 01:58:12;;;;;;;6.37;3.97;;;;;;;14.46;44.29;99228.75;4401443;32;34652;-60
2023/03/24 02:00:42;;;;;;;8.65;5.35;;;;;;;14.52;44.00;99228.19;4417947;32;34082;-60
2023/03/24 02:03:18;;;;;;;6.62;4.70;;;;;;;14.50;43.73;99226.59;4416163;32;33380;-60
2023/03/24 02:05:47;;;;;;;6.62;5.00;;;;;;;14.48;43.79;99216.00;4413918;32;31837;-59
2023/03/24 02:08:39;;;;;;;10.90;6.00;;;;;;;14.20;44.68;99216.00;4409968;32;33388;-59
2023/03/24 02:11:07;;;;;;;7.95;5.35;;;;;;;14.35;44.11;99210.09;4413145;32;34182;-61
2023/03/24 02:13:35;;;;;;;5.32;4.00;;;;;;;14.27;44.22;99210.03;4413953;32;34744;-60
2023/03/24 02:16:17;;;;;;;6.80;4.32;;;;;;;14.23;44.49;99220.25;4412747;32;33486;-60
2023/03/24 02:19:25;;;;;;;5.70;4.25;;;;;;;14.35;44.14;99223.56;4402910;32;33905;-59
2023/03/24 02:22:15;;;;;;;4.93;3.85;;;;;;;14.35;43.96;99210.09;4415943;32;33552;-59
2023/03/24 02:25:01;;;;;;;10.13;4.57;;;;;;;14.32;44.12;99213.12;4414502;32;34558;-59
2023/03/24 02:27:54;;;;;;;6.95;5.05;;;;;;;14.09;44.89;99218.06;4410536;32;34129;-61
2023/03/24 02:30:28;;;;;;;7.87;5.28;;;;;;;14.02;45.04;99216.97;4403693;32;33885;-59
2023/03/24 02:33:05;;;;;;;7.12;4.68;;;;;;;14.07;44.50;99220.06;4403964;32;33826;-58
2023/03/24 02:35:54;;;;;;;8.27;5.03;;;;;;;13.79;45.40;99221.91;4411108;32;33677;-59
2023/03/24 02:38:36;;;;;;;5.30;4.03;;;;;;;13.85;45.15;99226.69;4417318;32;34513;-58
2023/03/24 02:41:36;;;;;;;4.80;3.97;;;;;;;13.92;44.61;99225.09;4416348;32;34068;-60
2023/03/24 02:44:10;;;;;;;9.80;3.72;;;;;;;13.75;45.06;99222.19;4413285;32;34111;-59
2023/03/24 02:46:44;;;;;;;5.45;3.78;;;;;;;13.56;45.69;99218.72;4418327;32;34813;-60
2023/03/24 02:49:23;;;;;;;5.68;4.03;;;;;;;13.68;45.30;99210.34;4415336;32;33250;-58
2023/03/24 02:52:04;;;;;;;6.07;4.53;;;;;;;13.72;45.51;99209.03;4416477;32;33914;-59
2023/03/24 02:54:43;;;;;;;6.95;3.60;;;;;;;13.50;46.23;99201.34;4403074;32;33764;-60
2023/03/24 02:57:13;;;;;;;4.47;3.90;;;;;;;13.58;46.25;99197.91;4402254;32;33661;-59
2023/03/24 02:59:53;;;;;;;2.30;2.08;;;;;;;13.72;46.09;99189.38;4401205;32;34467;-59
2023/03/24 03:02:30;;;;;;;4.28;2.25;;;;;;;13.87;45.66;99192.44;4400130;32;34594;-60
2023/03/24 03:05:04;;;;;;;6.68;4.55;;;;;;;13.86;45.71;99191.56;4400578;32;34972;-58
2023/03/24 03:07:32;;;;;;;6.10;3.78;;;;;;;13.84;45.53;99190.03;4404965;32;33989;-60
2023/03/24 03:10:02;;;;;;;5.93;3.80;;;;;;;13.70;46.50;99189.50;4402047;32;33140;-60
2023/03/24 03:12:33;;;;;;;8.50;5.68;;;;;;;13.67;46.77;99178.19;4416875;32;33043;-58
2023/03/24 03:15:06;;;;;;;9.27;6.03;;;;;;;13.21;48.73;99175.34;4413600;32;34040;-58
2023/03/24 03:18:06;;;;;;;9.38;5.40;;;;;;;12.63;50.42;99183.50;4404337;32;33624;-60
2023/03/24 03:20:38;;;;;;;17.42;6.03;;;;;;;13.71;48.10;99190.38;4418884;32;31906;-60
2023/03/24 03:23:09;;;;;;;8.48;4.37;;;;;;;13.99;47.12;99189.34;4417403;32;34862;-59
2023/03/24 03:25:41;;;;;;;9.57;4.93;;;;;;;14.01;46.81;99186.53;4401817;32;34932;-63
2023/03/24 03:28:09;;;;;;;7.28;5.40;;;;;;;13.61;47.72;99182.34;4394808;32;35438;-61
2023/03/24 03:30:41;;;;;;;6.43;4.45;;;;;;;13.85;47.36;99170.19;4401852;32;33556;-60
2023/03/24 03:33:16;;;;;;;10.73;4.70;;;;;;;13.90;47.09;99168.75;4404910;32;33487;-60
2023/03/24 03:35:48;;;;;;;7.10;5.35;;;;;;;14.23;46.42;99176.34;4401941;32;34102;-59
2023/03/24 03:38:25;;;;;;;9.80;5.35;;;;;;;14.31;46.14;99174.56;4402349;32;34994;-61
2023/03/24 03:40:58;;;;;;;7.82;5.12;;;;;;;14.38;45.82;99177.50;4400475;32;33074;-59
2023/03/24 03:43:29;;;;;;;7.93;5.22;;;;;;;14.41;45.67;99188.84;4407471;32;34748;-62
2023/03/24 03:45:58;;;;;;;7.68;5.70;;;;;;;14.27;46.23;99185.81;4418535;32;34429;-59
2023/03/24 03:48:28;;;;;;;8.68;6.05;;;;;;;13.59;48.04;99187.00;4415548;32;33083;-60
2023/03/24 03:50:56;;;;;;;13.00;7.80;;;;;;;13.79;47.65;99177.00;4411867;32;32290;-62
2023/03/24 03:53:54;;;;;;;7.90;5.72;;;;;;;14.16;46.74;99174.25;4415956;32;34508;-62
2023/03/24 03:56:25;;;;;;;9.82;5.20;;;;;;;14.26;46.42;99174.19;4415203;32;33644;-59
2023/03/24 03:58:54;;;;;;;12.20;4.75;;;;;;;14.38;45.74;99172.13;4395335;32;34021;-59
2023/03/24 04:01:24;;;;;;;7.75;4.82;;;;;;;14.25;46.09;99179.72;4418033;32;34286;-59
2023/03/24 04:04:20;;;;;;;10.63;5.15;;;;;;;14.44;45.31;99169.69;4403003;32;33711;-62
2023/03/24 04:07:14;;;;;;;7.97;5.28;;;;;;;14.34;45.80;99166.19;4412707;32;32512;-62
2023/03/24 04:09:52;;;;;;;9.82;6.93;;;;;;;14.47;45.15;99165.81;4409934;32;33702;-60
2023/03/24 04:12:53;;;;;;;10.73;6.22;;;;;;;14.36;45.60;99157.97;4415658;32;33377;-60
2023/03/24 04:15:35;;;;;;;10.15;6.28;;;;;;;14.42;45.44;99168.13;4402494;32;33186;-62
2023/03/24 04:18:25;;;;;;;11.82;6.97;;;;;;;14.41;45.15;99167.28;4418283;32;35175;-62
2023/03/24 04:21:08;;;;;;;13.00;6.90;;;;;;;14.43;44.52;99164.44;4404294;32;33859;-60
2023/03/24 04:23:45;;;;;;;11.55;6.90;;;;;;;14.35;44.69;99167.91;4417134;32;34386;-62
2023/03/24 04:26:26;;;;;;;9.38;5.87;;;;;;;14.39;44.83;99171.13;4401173;32;33732;-61
2023/03/24 04:29:16;;;;;;;5.37;3.62;;;;;;;14.28;45.09;99158.72;4399052;32;33005;-60
2023/03/24 04:31:52;;;;;;;9.85;7.85;;;;;;;14.36;44.83;99160.66;4412807;32;33852;-59
2023/03/24 04:34:30;;;;;;;9.23;5.57;;;;;;;14.33;44.60;99161.81;4404562;32;33282;-60
2023/03/24 04:37:05;;;;;;;10.32;7.10;;;;;;;14.34;44.38;99159.97;4409499;32;33687;-58
2023/03/24 04:39:37;;;;;;;8.57;7.22;;;;;;;14.33;44.20;99160.97;4394469;32;34660;-59
2023/03/24 04:42:10;;;;;;;12.85;7.25;;;;;;;14.25;44.77;99163.56;4401836;32;34713;-60
2023/03/24 04:44:40;;;;;;;7.32;5.07;;;;;;;14.10;45.42;99169.47;4402903;32;32232;-61
2023/03/24 04:47:11;;;;;;;14.55;7.72;;;;;;;14.12;45.06;99170.16;4417020;32;33720;-58
2023/03/24 04:49:40;;;;;;;11.48;5.97;;;;;;;14.09;45.49;99172.31;4401169;32;33823;-59
2023/03/24 04:52:07;;;;;;;13.77;8.90;;;;;;;14.25;45.21;99175.19;4411145;32;33427;-59
2023/03/24 04:54:36;;;;;;;15.60;6.70;;;;;;;14.26;44.79;99173.34;4417792;32;32138;-59
2023/03/24 04:57:04;;;;;;;9.95;5.78;;;;;;;14.19;44.77;99173.97;4416527;32;33615;-59
2023/03/24 04:59:33;;;;;;;6.62;5.95;;;;;;;14.20;44.41;99169.41;4401732;32;35260;-59
2023/03/24 05:02:02;;;;;;;8.50;6.55;;;;;;;14.02;44.70;99171.22;4413251;32;33680;-60
2023/03/24 05:04:30;;;;;;;8.02;5.10;;;;;;;14.11;44.17;99175.72;4418510;32;33331;-59
2023/03/24 05:06:58;;;;;;;7.82;5.53;;;;;;;14.15;44.06;99182.47;4416678;32;34769;-60
2023/03/24 05:09:26;;;;;;;10.95;8.38;;;;;;;14.11;43.97;99181.09;4415812;32;32720;-59
2023/03/24 05:11:53;;;;;;;10.90;7.05;;;;;;;13.93;44.74;99187.28;4416583;32;34856;-59
2023/03/24 05:14:21;;;;;;;10.75;7.60;;;;;;;13.92;44.83;99184.72;4418836;32;33451;-61
2023/03/24 05:16:52;;;;;;;9.65;6.25;;;;;;;13.85;44.60;99195.25;4417450;32;33895;-59
2023/03/24 05:19:19;;;;;;;9.80;5.90;;;;;;;13.70;44.60;99194.88;4416380;32;35131;-60
2023/03/24 05:21:47;;;;;;;9.88;6.30;;;;;;;13.49;45.33;99184.34;4414908;32;33580;-59
2023/03/24 05:24:15;;;;;;;8.30;5.90;;;;;;;13.53;45.58;99187.59;4414687;32;33442;-59
2023/03/24 05:26:43;;;;;;;13.38;5.12;;;;;;;13.51;45.82;99179.69;4417007;32;32619;-58
2023/03/24 05:29:10;;;;;;;7.07;5.62;;;;;;;13.70;45.73;99192.19;4412053;32;34219;-60
2023/03/24 05:31:38;;;;;;;7.55;5.32;;;;;;;13.74;46.08;99184.69;4417616;32;33567;-58
2023/03/24 05:34:06;;;;;;;9.25;7.28;;;;;;;13.89;45.97;99193.09;4416210;32;33429;-58
2023/03/24 05:36:37;;;;;;;12.40;6.85;;;;;;;14.04;45.62;99186.22;4415073;32;33421;-58
2023/03/24 05:39:05;;;;;;;8.18;6.22;;;;;;;14.17;45.48;99193.94;4416378;32;33992;-58
2023/03/24 05:41:33;;;;;;;8.13;5.55;;;;;;;14.19;45.65;99200.87;4418734;32;33914;-60
2023/03/24 05:44:00;;;;;;;7.80;4.95;;;;;;;14.33;45.33;99195.97;4416083;32;33310;-58
2023/03/24 05:46:28;;;;;;;9.77;8.10;;;;;;;14.24;45.58;99192.34;4417847;32;33868;-58
2023/03/24 05:48:56;;;;;;;9.52;6.12;;;;;;;14.36;45.36;99204.59;4412754;32;33827;-65
2023/03/24 05:51:24;;;;;;;8.23;6.50;;;;;;;14.52;45.25;99205.78;4396220;32;32400;-60
2023/03/24 05:53:52;;;;;;;11.95;7.22;;;;;;;14.54;45.41;99198.38;4412025;32;32966;-60
2023/03/24 05:56:19;;;;;;;10.07;7.00;;;;;;;14.49;45.66;99192.59;4416987;32;33641;-62
2023/03/24 05:58:50;;;;;;;11.38;7.07;;;;;;;14.75;45.43;99200.78;4417494;32;34111;-60
2023/03/24 06:01:18;;;;;;;15.55;8.50;;;;;;;14.73;45.86;99200.94;4417680;32;33995;-62
2023/03/24 06:03:47;;;;;;;9.30;6.87;;;;;;;14.96;45.32;99195.06;4416667;32;33444;-61
2023/03/24 06:06:15;;;;;;;7.32;6.57;;;;;;;14.80;45.48;99199.34;4417045;32;33644;-60
2023/03/24 06:08:46;;;;;;;8.60;6.32;;;;;;;14.44;46.66;99199.31;4418418;32;35258;-60
2023/03/24 06:11:14;;;;;;;15.38;11.93;;;;;;;15.08;45.02;99189.25;4419985;32;34040;-60
2023/03/24 06:13:43;;;;;;;9.40;6.57;;;;;;;15.22;45.17;99198.66;4419683;32;33361;-63
2023/03/24 06:16:11;;;;;;;5.30;4.03;;;;;;;15.26;44.77;99194.63;4418460;32;33829;-60
2023/03/24 06:18:41;;;;;;;9.43;6.43;;;;;;;15.27;44.58;99195.47;4418386;32;35281;-63
2023/03/24 06:21:09;;;;;;;19.37;8.57;;;;;;;15.31;44.60;99199.53;4418108;32;33023;-62
2023/03/24 06:23:37;;;;;;;9.90;6.75;;;;;;;15.47;44.74;99201.50;4415607;32;33072;-61
2023/03/24 06:26:08;;;;;;;10.13;6.25;;;;;;;15.45;44.62;99201.66;4416606;32;34990;-61
2023/03/24 06:28:38;;;;;;;15.63;8.10;;;;;;;15.63;44.20;99201.59;4416606;32;33604;-61
2023/03/24 06:31:13;;;;;;;11.80;8.02;;;;;;;15.90;43.50;99195.19;4418053;32;33548;-62
2023/03/24 06:33:41;;;;;;;14.67;7.67;;;;;;;16.05;42.91;99204.38;4417494;32;32888;-63
2023/03/24 06:36:11;;;;;;;10.60;7.32;;;;;;;16.50;41.70;99204.97;4415681;32;33879;-64
2023/03/24 06:38:40;;;;;;;13.65;6.53;;;;;;;16.39;41.58;99200.75;4406517;32;34101;-62
2023/03/24 06:41:08;;;;;;;10.13;6.40;;;;;;;18.34;38.11;99198.81;4415267;32;32495;-62
2023/03/24 06:43:36;;;;;;;10.27;7.62;;;;;;;18.14;37.23;99184.87;4412366;32;33265;-63
2023/03/24 06:46:04;;;;;;;14.43;9.30;;;;;;;19.05;35.50;99172.41;4417157;32;34635;-64
2023/03/24 06:48:32;;;;;;;10.93;7.37;;;;;;;18.76;36.13;99175.88;4416461;32;35035;-65
2023/03/24 06:51:00;;;;;;;10.70;9.32;;;;;;;17.99;37.00;99174.97;4418572;32;34152;-64
2023/03/24 06:53:27;;;;;;;12.07;8.05;;;;;;;16.92;39.57;99172.47;4418741;32;33268;-64
2023/03/24 06:55:55;;;;;;;17.15;9.70;;;;;;;15.90;41.41;99172.75;4420727;32;33645;-63
2023/03/24 06:58:23;;;;;;;15.40;8.88;;;;;;;16.93;40.05;99178.72;4414749;32;33700;-61
2023/03/24 07:00:52;;;;;;;10.63;6.57;;;;;;;16.33;41.04;99169.00;4416184;32;33780;-65
2023/03/24 07:03:22;;;;;;;11.35;7.62;;;;;;;15.72;43.02;99175.53;4416174;32;33311;-64
2023/03/24 07:05:54;;;;;;;10.70;8.55;;;;;;;16.04;41.92;99164.03;4418635;32;34729;-61
2023/03/24 07:08:21;;;;;;;12.30;8.82;;;;;;;16.27;41.53;99172.34;4416909;32;33743;-63
2023/03/24 07:11:08;;;;;;;12.10;6.87;;;;;;;16.18;42.02;99163.41;4416589;32;34924;-61
2023/03/24 07:13:37;;;;;;;15.45;7.95;;;;;;;16.52;41.62;99167.84;4419641;32;31072;-63
2023/03/24 07:16:05;;;;;;;14.82;7.72;;;;;;;15.86;42.30;99171.38;4415449;32;34679;-61
2023/03/24 07:18:33;;;;;;;9.82;6.95;;;;;;;16.16;41.97;99169.97;4417021;32;33783;-60
2023/03/24 07:21:01;;;;;;;10.68;6.00;;;;;;;16.36;41.69;99175.94;4419554;32;34814;-60
2023/03/24 07:23:29;;;;;;;9.95;6.55;;;;;;;15.37;43.82;99166.53;4419143;32;32715;-63
2023/03/24 07:25:57;;;;;;;7.93;6.18;;;;;;;16.66;41.42;99166.34;4420642;32;34478;-59
2023/03/24 07:28:27;;;;;;;10.68;7.55;;;;;;;16.92;40.56;99160.81;4416104;32;34296;-64
2023/03/24 07:30:55;;;;;;;10.38;7.70;;;;;;;16.95;40.76;99152.34;4422148;32;34683;-65
2023/03/24 07:33:23;;;;;;;6.45;5.10;;;;;;;17.03;40.78;99151.50;4418765;32;34519;-62
2023/03/24 07:35:56;;;;;;;11.52;6.93;;;;;;;16.80;40.98;99151.38;4421030;32;33633;-64
2023/03/24 07:38:25;;;;;;;9.52;6.18;;;;;;;17.17;40.65;99148.09;4418979;32;33963;-62
2023/03/24 07:40:53;;;;;;;6.97;5.37;;;;;;;17.41;39.86;99158.03;4419484;32;33777;-62
2023/03/24 07:43:21;;;;;;;8.68;6.53;;;;;;;16.70;41.47;99154.19;4417166;32;34525;-62
2023/03/24 07:45:50;;;;;;;5.80;5.07;;;;;;;16.57;41.52;99149.28;4409858;32;35112;-61
2023/03/24 07:48:18;;;;;;;7.68;5.50;;;;;;;17.23;40.26;99160.94;4421091;32;35254;-63
2023/03/24 07:50:46;;;;;;;8.80;5.78;;;;;;;17.85;39.45;99165.72;4421424;32;34855;-62
2023/03/24 07:53:18;;;;;;;10.80;7.00;;;;;;;19.03;36.79;99162.78;4419198;32;34401;-60
2023/03/24 07:55:47;;;;;;;10.35;6.68;;;;;;;19.79;35.51;99160.81;4421806;32;32762;-62
2023/03/24 07:58:16;;;;;;;12.63;8.20;;;;;;;20.90;33.33;99159.62;4418391;32;34040;-62
2023/03/24 08:00:47;;;;;;;12.57;8.55;;;;;;;23.13;30.37;99157.56;4419945;32;33853;-62
2023/03/24 08:03:16;;;;;;;9.75;7.15;;;;;;;24.48;27.19;99145.00;4418016;32;34194;-62
2023/03/24 08:05:45;;;;;;;18.73;12.25;;;;;;;24.73;27.13;99145.06;4418126;32;33881;-64
2023/03/24 08:08:13;;;;;;;25.77;12.85;;;;;;;25.00;26.51;99151.19;4417371;32;33655;-61
2023/03/24 08:10:41;;;;;;;17.00;12.40;;;;;;;24.96;26.66;99149.94;4416841;32;34878;-64
2023/03/24 08:13:09;;;;;;;20.00;15.02;;;;;;;25.80;25.98;99139.50;4420414;32;33486;-62
2023/03/24 08:15:36;;;;;;;11.95;9.15;;;;;;;25.49;25.68;99140.44;4421533;32;33640;-64
2023/03/24 08:18:05;;;;;;;13.77;8.18;;;;;;;23.86;26.75;99141.91;4419184;32;34003;-64
2023/03/24 08:20:32;;;;;;;13.18;10.15;;;;;;;23.39;27.62;99135.69;4419964;32;33703;-61
2023/03/24 08:23:03;;;;;;;16.48;9.73;;;;;;;22.70;28.79;99126.00;4415785;32;33470;-64
2023/03/24 08:25:31;;;;;;;17.40;9.93;;;;;;;21.90;30.21;99129.53;4412121;32;32568;-61
2023/03/24 08:27:59;;;;;;;14.40;7.07;;;;;;;22.70;29.04;99122.47;4413598;32;34032;-64
2023/03/24 08:30:27;;;;;;;11.82;9.07;;;;;;;22.44;29.80;99115.03;4411323;32;32794;-62
2023/03/24 08:33:00;;;;;;;13.45;10.32;;;;;;;20.66;32.00;99116.50;4421095;32;33362;-61
2023/03/24 08:35:32;;;;;;;10.88;8.00;;;;;;;21.45;30.93;99110.88;4419531;32;33677;-62
2023/03/24 08:38:00;;;;;;;32.92;9.85;;;;;;;21.14;31.61;99101.19;4400638;32;33999;-62
2023/03/24 08:40:34;;;;;;;14.38;9.73;;;;;;;21.03;31.99;99112.62;4417886;32;33483;-62
2023/03/24 08:43:07;;;;;;;12.70;9.55;;;;;;;20.22;33.00;99102.03;4414079;32;33145;-61
2023/03/24 08:45:35;;;;;;;10.23;7.50;;;;;;;20.57;33.00;99114.94;4403245;32;33732;-61
2023/03/24 08:48:05;;;;;;;11.55;7.75;;;;;;;19.90;33.95;99107.91;4423728;32;33541;-61
2023/03/24 08:50:34;;;;;;;12.70;6.60;;;;;;;19.69;34.53;99103.25;4421002;32;33814;-61
2023/03/24 08:53:02;;;;;;;10.45;7.12;;;;;;;18.75;35.99;99102.88;4421818;32;33310;-61
2023/03/24 08:55:30;;;;;;;11.07;6.12;;;;;;;19.46;35.10;99104.19;4418221;32;33959;-61
2023/03/24 08:57:57;;;;;;;8.57;6.35;;;;;;;19.11;35.81;99102.19;4420576;32;34026;-61
2023/03/24 09:00:25;;;;;;;11.32;6.78;;;;;;;19.30;35.66;99112.50;4415911;32;33490;-61
2023/03/24 09:02:54;;;;;;;11.27;5.70;;;;;;;19.30;35.57;99105.22;4417648;32;34296;-61
2023/03/24 09:05:24;;;;;;;11.32;5.78;;;;;;;19.69;34.97;99106.81;4413666;32;32749;-61
2023/03/24 09:08:11;;;;;;;9.82;5.75;;;;;;;20.13;34.39;99103.19;4414842;32;34096;-62
2023/03/24 09:10:40;;;;;;;10.13;6.57;;;;;;;20.26;34.29;99105.22;4417168;32;34853;-63
2023/03/24 09:13:08;;;;;;;15.80;9.02;;;;;;;20.77;33.37;99101.53;4418463;32;33427;-61
2023/03/24 09:15:36;;;;;;;11.40;7.25;;;;;;;21.15;33.46;99096.59;4415914;32;32825;-61
2023/03/24 09:18:04;;;;;;;9.45;6.03;;;;;;;20.48;33.81;99093.31;4408802;32;32952;-62
2023/03/24 09:20:31;;;;;;;7.65;5.35;;;;;;;20.96;32.98;99089.13;4416430;32;33875;-61
2023/03/24 09:23:01;;;;;;;9.80;7.18;;;;;;;20.48;33.88;99096.03;4415009;32;33475;-63
2023/03/24 09:25:29;;;;;;;8.70;6.40;;;;;;;20.36;34.06;99086.69;4412196;32;32642;-61
2023/03/24 09:27:56;;;;;;;11.27;6.40;;;;;;;20.26;34.53;99099.78;4419786;32;34039;-63
2023/03/24 09:30:24;;;;;;;14.75;8.35;;;;;;;19.66;34.92;99088.19;4414050;32;34081;-61
2023/03/24 09:32:51;;;;;;;12.35;6.70;;;;;;;19.93;34.78;99081.19;4417736;32;32250;-61
2023/03/24 09:35:19;;;;;;;10.00;6.57;;;;;;;19.55;35.70;99080.50;4408766;32;34924;-62
2023/03/24 09:37:47;;;;;;;9.50;6.22;;;;;;;20.60;34.13;99068.34;4421341;32;34594;-61
2023/03/24 09:40:38;;;;;;;13.40;9.13;;;;;;;20.77;33.76;99071.59;4413125;32;33691;-63
2023/03/24 09:43:11;;;;;;;12.25;8.10;;;;;;;21.42;33.05;99066.88;4409578;32;34115;-62
2023/03/24 09:45:54;;;;;;;11.50;6.70;;;;;;;21.13;33.31;99068.75;4402631;32;32809;-60
2023/03/24 09:48:35;;;;;;;13.18;9.68;;;;;;;21.24;33.64;99070.91;4404982;32;34081;-62
2023/03/24 09:51:08;;;;;;;9.25;5.95;;;;;;;20.75;34.37;99073.69;4400904;32;33733;-62
2023/03/24 09:53:46;;;;;;;11.95;5.37;;;;;;;20.21;35.33;99058.75;4414044;32;34322;-64
2023/03/24 09:56:16;;;;;;;14.25;6.12;;;;;;;20.77;34.63;99063.44;4400858;32;33754;-62
2023/03/24 09:58:48;;;;;;;13.52;8.02;;;;;;;20.25;35.10;99060.03;4403353;32;33865;-62
2023/03/24 10:01:16;;;;;;;11.02;7.53;;;;;;;20.59;34.62;99062.06;4418858;32;31926;-62
2023/03/24 10:03:45;;;;;;;11.30;6.57;;;;;;;20.81;34.16;99062.03;4405194;32;33335;-64
2023/03/24 10:06:21;;;;;;;10.63;6.78;;;;;;;20.47;35.13;99048.13;4406960;32;34757;-62
2023/03/24 10:08:58;;;;;;;10.18;7.50;;;;;;;20.30;35.23;99040.44;4395756;32;33858;-62
2023/03/24 10:11:45;;;;;;;10.20;6.62;;;;;;;21.11;34.24;99041.72;4404932;32;32874;-62
2023/03/24 10:14:25;;;;;;;10.60;6.28;;;;;;;21.37;33.46;99032.91;4410027;32;33498;-64
2023/03/24 10:17:07;;;;;;;9.73;6.70;;;;;;;20.86;34.23;99025.03;4417183;32;32562;-61
2023/03/24 10:20:27;;;;;;;11.40;6.30;;;;;;;21.40;33.74;99020.78;4395185;32;35341;-61
2023/03/24 10:23:13;;;;;;;10.73;5.65;;;;;;;21.00;33.50;99028.69;4394069;32;33663;-62
2023/03/24 10:25:44;;;;;;;12.40;5.55;;;;;;;21.68;32.27;99026.16;4418115;32;34175;-62
2023/03/24 10:28:23;;;;;;;10.85;4.70;;;;;;;21.09;33.22;99011.19;4416955;32;33196;-66
2023/03/24 10:30:53;;;;;;;6.68;3.33;;;;;;;21.85;32.22;99005.66;4416122;32;35695;-63
2023/03/24 10:33:21;;;;;;;7.43;4.43;;;;;;;21.86;32.82;99001.03;4420622;32;34598;-65
2023/03/24 10:36:00;;;;;;;6.95;4.15;;;;;;;21.88;32.19;98998.97;4415805;32;32184;-62
2023/03/24 10:38:29;;;;;;;7.35;3.92;;;;;;;21.98;32.15;99009.47;4415291;32;33559;-62
2023/03/24 10:40:57;;;;;;;8.45;4.50;;;;;;;21.57;32.12;99004.94;4413091;32;35175;-62
2023/03/24 10:43:25;;;;;;;12.23;6.68;;;;;;;22.03;31.86;99007.81;4401332;32;33929;-63
2023/03/24 10:45:55;;;;;;;9.45;4.80;;;;;;;21.28;32.63;99011.47;4415031;32;32259;-61
2023/03/24 10:48:43;;;;;;;5.40;3.47;;;;;;;21.30;32.59;99012.13;4404642;32;32457;-62
2023/03/24 10:51:16;;;;;;;8.70;4.40;;;;;;;21.58;32.05;99010.19;4414287;32;34130;-61
2023/03/24 10:53:47;;;;;;;6.95;3.53;;;;;;;21.15;32.45;98999.50;4413860;32;32793;-60
2023/03/24 10:56:17;;;;;;;6.95;4.07;;;;;;;21.21;32.90;99003.28;4409600;32;32982;-61
2023/03/24 10:58:46;;;;;;;12.27;6.18;;;;;;;21.37;32.82;98999.41;4395590;32;33559;-62
2023/03/24 11:01:29;;;;;;;11.57;5.12;;;;;;;21.49;32.54;98992.34;4411002;32;32340;-62
2023/03/24 11:03:59;;;;;;;8.20;3.55;;;;;;;22.08;32.21;98991.66;4405796;32;33955;-62
2023/03/24 11:06:27;;;;;;;7.95;4.00;;;;;;;21.99;31.35;98986.63;4412660;32;34358;-61
2023/03/24 11:09:19;;;;;;;9.60;5.47;;;;;;;22.48;30.77;98969.09;4414468;32;33781;-61
2023/03/24 11:11:47;;;;;;;11.12;6.30;;;;;;;22.04;31.19;98984.12;4409005;32;32744;-61
2023/03/24 11:14:22;;;;;;;11.52;4.70;;;;;;;22.61;30.56;98970.97;4411207;32;33791;-62
2023/03/24 11:16:51;;;;;;;8.93;4.43;;;;;;;23.10;29.04;98961.44;4413430;32;33331;-62
2023/03/24 11:19:23;;;;;;;12.15;4.62;;;;;;;22.91;29.67;98963.97;4412975;32;32937;-61
2023/03/24 11:21:51;;;;;;;13.90;5.68;;;;;;;22.67;29.50;98951.88;4412469;32;33981;-60
2023/03/24 11:24:19;;;;;;;7.22;3.53;;;;;;;23.21;29.32;98950.72;4400784;32;33907;-60
2023/03/24 11:26:55;;;;;;;8.57;4.20;;;;;;;23.64;28.50;98946.53;4418246;32;33121;-61
2023/03/24 11:29:24;;;;;;;7.87;3.80;;;;;;;22.94;29.29;98951.84;4406998;32;33740;-61
2023/03/24 11:31:57;;;;;;;7.05;3.40;;;;;;;22.79;29.32;98949.31;4403473;32;34826;-64
2023/03/24 11:34:33;;;;;;;6.87;3.35;;;;;;;22.94;28.41;98940.94;4408726;32;33438;-61
2023/03/24 11:37:13;;;;;;;6.28;2.58;;;;;;;22.41;28.64;98941.00;4404248;32;32253;-61
2023/03/24 11:39:41;;;;;;;6.30;3.50;;;;;;;22.10;29.18;98931.50;4408178;32;34853;-63
2023/03/24 11:42:11;;;;;;;3.53;2.03;;;;;;;22.49;28.55;98919.78;4405478;32;32472;-62
2023/03/24 11:44:45;;;;;;;7.55;2.92;;;;;;;23.11;27.96;98923.00;4419010;32;33759;-61
2023/03/24 11:47:21;;;;;;;5.57;2.78;;;;;;;22.12;28.82;98931.28;4416735;32;181454;-61
2023/03/24 11:50:09;;;;;;;5.10;2.72;;;;;;;22.33;29.14;98928.41;4419626;32;33886;-61
2023/03/24 11:52:49;;;;;;;4.87;2.08;;;;;;;22.45;28.40;98915.81;4415653;32;34024;-63